Galveston, Kentucky
Current Conditions -  °F | °C
As of 9:35 PM on Sunday 23 Nov 2014 (Local Time) from KPBX Reporting Station
Broken Clouds Broken Clouds  
Wind Chill: 58°   Ceiling: 7000
Heat Index: 58°   Visibility: 10mi
Dew Point: 52°   Wind: 9mph
Humidity: 80%   Direction: 170°S
Pressure: 29.51"   Gusts: 16mph
Location:  37.4843°N, 82.6492°W
Report Text: KPBX 240235Z AUTO 17008G14KT 120V200 10SM SCT028 SCT034 BKN070 15/11 A2951 RMK AO2 T01450111
Loading
Personal Weather Stations






























Interactive Weather Map New forecast layout! Learn more

10-Day Weather Forecast

Advertisements
Track Severe Weather on mobile